Time;durP1;ratioP1;P1;durP2;ratioP2;P2;SDS_P1;SDS_P2;PMS_P1;PMS_P2;Temp;Humidity;BMP_temperature;BMP_pressure;BME280_temperature;BME280_humidity;BME280_pressure;Samples;Min_cycle;Max_cycle;Signal;HPM_P1;HPM_P2
2022/05/06 00:00:57;;;;;;;5.47;4.97;;;17.70;90.90;;;;;;6338686;22;19999;-82
2022/05/06 00:03:23;;;;;;;4.60;4.10;;;17.70;91.00;;;;;;6338888;22;20017;-82
2022/05/06 00:05:49;;;;;;;4.15;3.75;;;17.60;91.00;;;;;;6339275;22;20019;-82
2022/05/06 00:08:16;;;;;;;4.65;4.25;;;17.70;91.00;;;;;;6338526;22;20003;-82
2022/05/06 00:10:41;;;;;;;4.30;3.90;;;17.60;90.80;;;;;;6311796;22;20038;-82
2022/05/06 00:13:07;;;;;;;5.22;4.18;;;17.70;90.80;;;;;;6339700;22;19999;-82
2022/05/06 00:15:35;;;;;;;3.80;3.50;;;17.70;91.00;;;;;;6338899;22;20007;-83
2022/05/06 00:18:01;;;;;;;4.80;4.10;;;17.60;91.00;;;;;;6338411;22;20108;-83
2022/05/06 00:20:26;;;;;;;4.38;3.97;;;17.60;90.90;;;;;;6311720;22;19999;-83
2022/05/06 00:22:52;;;;;;;5.00;4.35;;;17.70;90.90;;;;;;6338638;22;20063;-82
2022/05/06 00:25:18;;;;;;;4.57;4.18;;;17.70;90.80;;;;;;6311319;22;20006;-83
2022/05/06 00:27:43;;;;;;;4.70;4.22;;;17.70;90.80;;;;;;6337153;22;20002;-83
2022/05/06 00:30:10;;;;;;;4.40;4.00;;;17.70;90.90;;;;;;6310226;22;20007;-83
2022/05/06 00:32:36;;;;;;;5.07;4.45;;;17.60;90.80;;;;;;6337501;22;20030;-83
2022/05/06 00:35:01;;;;;;;4.97;4.40;;;17.60;90.90;;;;;;6337805;22;20425;-84
2022/05/06 00:37:27;;;;;;;5.70;5.20;;;17.70;90.80;;;;;;6337657;22;20002;-82
2022/05/06 00:39:53;;;;;;;5.43;4.22;;;17.60;90.90;;;;;;6339564;22;19999;-82
2022/05/06 00:42:19;;;;;;;4.07;3.75;;;17.60;90.80;;;;;;6312879;22;20059;-82
2022/05/06 00:44:45;;;;;;;4.25;3.55;;;17.60;90.80;;;;;;6313263;22;20144;-83
2022/05/06 00:47:11;;;;;;;4.25;3.78;;;17.60;91.00;;;;;;6340485;22;20006;-84
2022/05/06 00:49:37;;;;;;;3.78;3.47;;;17.60;90.90;;;;;;6340833;22;20002;-84
2022/05/06 00:52:06;;;;;;;4.40;4.00;;;17.60;91.00;;;;;;6340621;22;20490;-81
2022/05/06 00:54:33;;;;;;;5.28;3.90;;;17.50;90.90;;;;;;6340696;22;20030;-82
2022/05/06 00:57:00;;;;;;;7.07;4.97;;;17.50;90.90;;;;;;6340219;22;19999;-81
2022/05/06 00:59:26;;;;;;;4.72;3.63;;;17.60;91.10;;;;;;6340407;22;20401;-81
2022/05/06 01:01:52;;;;;;;3.97;3.58;;;17.60;91.00;;;;;;6340421;22;19999;-81
2022/05/06 01:04:18;;;;;;;4.40;3.63;;;17.50;91.10;;;;;;6340100;22;20406;-80
2022/05/06 01:06:45;;;;;;;3.70;3.40;;;17.50;91.10;;;;;;6339841;22;20002;-80
2022/05/06 01:09:18;;;;;;;5.15;3.33;;;17.60;91.00;;;;;;6339543;22;20387;-80
2022/05/06 01:11:44;;;;;;;3.80;3.50;;;17.60;91.10;;;;;;6339911;22;20007;-80
2022/05/06 01:14:11;;;;;;;4.47;4.07;;;17.60;91.10;;;;;;6340198;22;20006;-80
2022/05/06 01:16:37;;;;;;;5.30;4.75;;;17.60;91.00;;;;;;6340135;22;20302;-81
2022/05/06 01:19:05;;;;;;;4.60;3.47;;;17.50;91.00;;;;;;6340190;22;20010;-80
2022/05/06 01:21:36;;;;;;;3.72;3.20;;;17.40;91.30;;;;;;6312376;22;20083;-80
2022/05/06 01:24:03;;;;;;;5.13;3.72;;;17.50;91.30;;;;;;6339576;22;20091;-81
2022/05/06 01:27:05;;;;;;;5.43;3.75;;;17.50;91.20;;;;;;6340063;22;20009;-80
2022/05/06 01:29:32;;;;;;;6.93;3.70;;;17.40;91.20;;;;;;6213883;23;20096;-80
2022/05/06 01:32:01;;;;;;;3.83;3.42;;;17.40;91.20;;;;;;6315660;22;20029;-80
2022/05/06 01:34:29;;;;;;;5.20;3.80;;;17.50;91.20;;;;;;6340048;22;19999;-80
2022/05/06 01:36:57;;;;;;;4.20;3.50;;;17.50;91.20;;;;;;6339337;22;20224;-80
2022/05/06 01:39:29;;;;;;;6.20;3.85;;;17.60;91.20;;;;;;6338723;22;20002;-80
2022/05/06 01:41:59;;;;;;;4.45;3.75;;;17.60;91.20;;;;;;6339078;22;19999;-80
2022/05/06 01:44:30;;;;;;;4.05;3.42;;;17.60;91.20;;;;;;6338550;22;19998;-79
2022/05/06 01:46:59;;;;;;;5.63;3.42;;;17.60;91.30;;;;;;6338686;22;20001;-79
2022/05/06 01:49:27;;;;;;;4.47;4.07;;;17.60;91.40;;;;;;6338951;22;20010;-79
2022/05/06 01:51:56;;;;;;;3.40;3.00;;;17.60;91.50;;;;;;6339596;22;20006;-80
2022/05/06 01:54:21;;;;;;;4.30;3.60;;;17.60;91.30;;;;;;6310700;22;20007;-80
2022/05/06 01:56:47;;;;;;;5.82;3.72;;;17.60;91.20;;;;;;6310497;22;20007;-79
2022/05/06 01:59:13;;;;;;;4.18;3.80;;;17.60;91.30;;;;;;6338616;22;20413;-79
2022/05/06 02:01:39;;;;;;;4.60;3.08;;;17.60;91.20;;;;;;6338869;22;20002;-79
2022/05/06 02:06:48;;;;;;;3.50;3.20;;;17.60;91.10;;;;;;6338634;22;20091;-79
2022/05/06 02:09:16;;;;;;;4.55;3.65;;;17.60;91.30;;;;;;6339234;22;20003;-80
2022/05/06 02:11:42;;;;;;;4.70;3.33;;;17.60;91.10;;;;;;6339468;22;20488;-82
2022/05/06 02:14:08;;;;;;;4.30;3.42;;;17.60;91.50;;;;;;6339805;22;20333;-81
2022/05/06 02:16:34;;;;;;;3.47;3.17;;;17.50;91.30;;;;;;6339265;22;20073;-82
2022/05/06 02:18:59;;;;;;;3.53;3.22;;;17.60;91.20;;;;;;6339315;22;20314;-82
2022/05/06 02:21:25;;;;;;;3.58;3.28;;;17.50;91.50;;;;;;6311487;22;20074;-82
2022/05/06 02:23:51;;;;;;;5.05;3.90;;;17.40;91.50;;;;;;6339595;22;19991;-84
2022/05/06 02:26:17;;;;;;;3.92;3.63;;;17.40;91.70;;;;;;6339553;22;20355;-80
2022/05/06 02:28:43;;;;;;;4.55;3.85;;;17.40;91.50;;;;;;6338984;22;20344;-80
2022/05/06 02:33:53;;;;;;;3.67;3.38;;;17.40;91.30;;;;;;6339716;22;20056;-81
2022/05/06 02:36:18;;;;;;;4.32;3.97;;;17.40;91.20;;;;;;6339438;22;20421;-82
2022/05/06 02:38:44;;;;;;;3.90;3.60;;;17.40;91.30;;;;;;6339135;22;19999;-82
2022/05/06 02:41:10;;;;;;;4.55;3.65;;;17.30;91.40;;;;;;6338508;22;19999;-82
2022/05/06 02:43:37;;;;;;;4.80;4.25;;;17.40;91.30;;;;;;6338474;22;20066;-81
2022/05/06 02:46:03;;;;;;;5.43;4.32;;;17.20;91.40;;;;;;6338932;22;20320;-82
2022/05/06 02:48:28;;;;;;;3.70;3.40;;;17.20;91.50;;;;;;6338760;22;20003;-81
2022/05/06 02:50:54;;;;;;;4.65;3.50;;;17.20;91.30;;;;;;6338218;22;20447;-81
2022/05/06 02:53:23;;;;;;;6.35;4.07;;;17.30;91.30;;;;;;6338600;22;19998;-80
2022/05/06 02:55:48;;;;;;;4.55;3.85;;;17.20;91.30;;;;;;6338765;22;19999;-81
2022/05/06 02:58:14;;;;;;;4.25;3.85;;;17.20;91.20;;;;;;6338159;22;19998;-80
2022/05/06 03:00:40;;;;;;;5.55;3.95;;;17.20;91.50;;;;;;6338767;22;19999;-80
2022/05/06 03:03:05;;;;;;;4.28;3.88;;;17.20;91.50;;;;;;6338390;22;20056;-81
2022/05/06 03:05:32;;;;;;;8.02;6.60;;;17.20;91.30;;;;;;6311154;22;20007;-81
2022/05/06 03:07:58;;;;;;;3.83;3.53;;;17.10;91.60;;;;;;6338630;22;19995;-80
2022/05/06 03:10:24;;;;;;;5.13;4.00;;;17.10;91.50;;;;;;6338476;22;20049;-81
2022/05/06 03:12:50;;;;;;;5.05;3.97;;;17.20;91.40;;;;;;6338998;22;19999;-81
2022/05/06 03:15:16;;;;;;;4.60;4.20;;;17.20;91.40;;;;;;6339110;22;20005;-80
2022/05/06 03:17:41;;;;;;;5.40;4.90;;;17.20;91.40;;;;;;6338592;22;20384;-80
2022/05/06 03:20:08;;;;;;;6.13;5.15;;;17.20;91.30;;;;;;6337651;22;20073;-79
2022/05/06 03:22:39;;;;;;;5.28;4.45;;;17.10;91.50;;;;;;6337613;22;19995;-79
2022/05/06 03:25:05;;;;;;;4.35;3.95;;;17.20;91.40;;;;;;6338010;22;20005;-79
2022/05/06 03:30:15;;;;;;;4.88;4.38;;;17.10;91.40;;;;;;6338130;22;20013;-80
2022/05/06 03:32:41;;;;;;;5.05;4.55;;;17.00;91.60;;;;;;6337555;22;20090;-80
2022/05/06 03:35:07;;;;;;;6.28;4.88;;;17.10;91.40;;;;;;6338162;22;20007;-81
2022/05/06 03:37:36;;;;;;;4.50;4.10;;;17.10;91.50;;;;;;6337195;22;20164;-80
2022/05/06 03:40:02;;;;;;;4.68;4.28;;;17.10;91.30;;;;;;6310669;22;20544;-81
2022/05/06 03:42:28;;;;;;;8.35;6.72;;;17.10;91.40;;;;;;6337920;22;20021;-81
2022/05/06 03:44:53;;;;;;;4.63;4.18;;;17.10;91.50;;;;;;6338693;22;20002;-81
2022/05/06 03:47:20;;;;;;;4.60;4.20;;;17.00;91.70;;;;;;6336811;22;19995;-80
2022/05/06 03:51:20;;;;;;;4.97;3.75;;;17.00;91.60;;;;;;6337669;22;20003;-81
2022/05/06 03:52:31;;;;;;;4.65;4.20;;;17.00;91.40;;;;;;6337836;22;20010;-81
2022/05/06 03:54:56;;;;;;;5.88;5.25;;;17.10;91.40;;;;;;6338893;22;20329;-81
2022/05/06 03:57:22;;;;;;;5.88;4.45;;;17.00;91.70;;;;;;6337491;22;20388;-81
2022/05/06 03:59:48;;;;;;;5.50;4.32;;;17.00;91.60;;;;;;6338396;22;20466;-84
2022/05/06 04:02:13;;;;;;;4.72;4.32;;;17.00;91.70;;;;;;6338005;22;20033;-84
2022/05/06 04:04:39;;;;;;;5.65;5.15;;;17.10;91.60;;;;;;6310555;22;20049;-84
2022/05/06 04:07:05;;;;;;;5.13;4.65;;;17.10;91.80;;;;;;6339608;22;20002;-83
2022/05/06 04:09:30;;;;;;;4.50;4.10;;;17.00;91.70;;;;;;6339569;22;20003;-84
2022/05/06 04:11:58;;;;;;;5.15;4.65;;;17.00;91.80;;;;;;6339060;22;20393;-81
2022/05/06 04:14:24;;;;;;;5.57;5.07;;;16.90;92.10;;;;;;6339316;22;19999;-81
2022/05/06 04:16:50;;;;;;;6.30;5.70;;;16.90;92.10;;;;;;6339396;22;20009;-80
2022/05/06 04:19:15;;;;;;;5.28;4.50;;;16.90;92.00;;;;;;6339864;22;20002;-80
2022/05/06 04:24:25;;;;;;;4.85;4.35;;;16.90;92.00;;;;;;6341188;22;20017;-82
2022/05/06 04:26:51;;;;;;;4.40;4.00;;;16.90;91.80;;;;;;6340205;22;20417;-80
2022/05/06 04:29:17;;;;;;;7.55;4.95;;;16.90;91.70;;;;;;6340041;22;20310;-81
2022/05/06 04:31:43;;;;;;;5.63;5.13;;;17.00;91.60;;;;;;6339646;22;20022;-80
2022/05/06 04:34:08;;;;;;;5.07;4.57;;;17.00;91.80;;;;;;6341229;22;20060;-84
2022/05/06 04:36:35;;;;;;;8.98;6.70;;;17.00;91.60;;;;;;6339856;22;20003;-85
2022/05/06 04:39:01;;;;;;;4.90;4.50;;;17.00;91.60;;;;;;6339321;22;20073;-83
2022/05/06 04:41:27;;;;;;;5.97;5.38;;;17.00;91.60;;;;;;6312326;22;20384;-84
2022/05/06 04:43:53;;;;;;;6.05;4.65;;;17.00;91.90;;;;;;6312743;22;20052;-82
2022/05/06 04:46:18;;;;;;;4.88;4.38;;;17.00;91.60;;;;;;6340219;22;20326;-81
2022/05/06 04:48:44;;;;;;;4.38;3.97;;;17.00;91.50;;;;;;6338645;22;20494;-82
2022/05/06 04:51:09;;;;;;;5.13;4.72;;;17.00;91.60;;;;;;6339978;22;20086;-82
2022/05/06 04:53:35;;;;;;;6.55;5.95;;;17.10;91.50;;;;;;6339589;22;19999;-78
2022/05/06 04:56:01;;;;;;;4.95;4.40;;;17.00;91.70;;;;;;6339755;22;20025;-78
2022/05/06 04:58:28;;;;;;;6.38;5.65;;;17.00;91.60;;;;;;6337789;22;20005;-78
2022/05/06 05:00:54;;;;;;;4.70;4.30;;;17.00;91.70;;;;;;6338776;22;20010;-79
2022/05/06 05:03:21;;;;;;;4.82;4.40;;;17.10;91.60;;;;;;6338109;22;20011;-78
2022/05/06 05:05:48;;;;;;;5.07;4.57;;;17.10;91.70;;;;;;6337996;22;20392;-78
2022/05/06 05:08:14;;;;;;;5.50;4.88;;;17.10;91.70;;;;;;6339570;22;20022;-79
2022/05/06 05:10:40;;;;;;;5.40;4.97;;;17.00;91.90;;;;;;6336901;22;19999;-79
2022/05/06 05:13:06;;;;;;;6.55;5.95;;;17.10;91.60;;;;;;6338047;22;19994;-79
2022/05/06 05:15:32;;;;;;;4.95;4.55;;;17.10;91.60;;;;;;6310554;22;20035;-79
2022/05/06 05:17:58;;;;;;;5.03;4.63;;;17.10;91.50;;;;;;6310997;22;20010;-79
2022/05/06 05:20:23;;;;;;;5.88;5.30;;;17.10;91.50;;;;;;6310441;22;20003;-79
2022/05/06 05:22:49;;;;;;;4.93;4.50;;;17.20;91.50;;;;;;6338308;22;20125;-78
2022/05/06 05:25:15;;;;;;;5.30;4.80;;;17.20;91.70;;;;;;6339201;22;19998;-79
2022/05/06 05:27:41;;;;;;;6.45;5.88;;;17.20;91.50;;;;;;6311250;22;20003;-78
2022/05/06 05:30:09;;;;;;;4.88;4.45;;;17.20;91.50;;;;;;6338439;22;20073;-79
2022/05/06 05:32:36;;;;;;;7.07;6.47;;;17.30;91.50;;;;;;6339397;22;20006;-80
2022/05/06 05:35:02;;;;;;;5.40;4.90;;;17.20;91.40;;;;;;6338840;22;20489;-81
2022/05/06 05:37:27;;;;;;;5.60;5.10;;;17.10;91.60;;;;;;6311851;22;20070;-80
2022/05/06 05:39:53;;;;;;;6.55;5.20;;;17.20;91.60;;;;;;6339517;22;20079;-79
2022/05/06 05:42:23;;;;;;;4.70;4.30;;;17.20;91.50;;;;;;6339698;22;19995;-79
2022/05/06 05:50:18;;;;;;;4.70;4.20;;;17.20;91.30;;;;;;6338742;22;20013;-73
2022/05/06 05:52:45;;;;;;;5.22;4.72;;;17.20;91.40;;;;;;6337109;22;20003;-73
2022/05/06 05:55:11;;;;;;;5.68;5.13;;;17.30;91.40;;;;;;6337130;22;20006;-74
2022/05/06 05:57:37;;;;;;;5.95;4.78;;;17.30;91.30;;;;;;6336153;22;20370;-73
2022/05/06 06:00:05;;;;;;;5.03;4.53;;;17.40;91.20;;;;;;6338041;22;20006;-74
2022/05/06 06:02:31;;;;;;;4.93;4.53;;;17.40;91.20;;;;;;6338836;22;20003;-73
2022/05/06 06:04:57;;;;;;;4.80;4.30;;;17.40;91.30;;;;;;6338310;22;20451;-73
2022/05/06 06:07:23;;;;;;;5.20;4.70;;;17.40;91.30;;;;;;6337324;22;20073;-73
2022/05/06 06:09:48;;;;;;;4.90;4.50;;;17.40;91.30;;;;;;6339005;22;20027;-73
2022/05/06 06:12:14;;;;;;;5.22;4.72;;;17.30;91.40;;;;;;6339128;22;20002;-73
2022/05/06 06:14:40;;;;;;;7.15;5.45;;;17.40;91.50;;;;;;6339312;22;20409;-72
2022/05/06 06:17:06;;;;;;;5.75;5.25;;;17.40;91.30;;;;;;6338564;22;20006;-73
2022/05/06 06:19:31;;;;;;;5.90;5.20;;;17.40;91.40;;;;;;6311219;22;20007;-73
2022/05/06 06:21:57;;;;;;;6.43;5.82;;;17.40;91.40;;;;;;6337608;22;20056;-72
2022/05/06 06:24:22;;;;;;;8.00;7.30;;;17.40;91.50;;;;;;6338926;22;19995;-73
2022/05/06 06:26:48;;;;;;;6.47;5.88;;;17.40;91.50;;;;;;6338425;22;20002;-74
2022/05/06 06:29:14;;;;;;;7.05;6.38;;;17.40;91.50;;;;;;6339206;22;19999;-74
2022/05/06 06:31:40;;;;;;;6.68;5.90;;;17.30;91.50;;;;;;6338871;22;20034;-74
2022/05/06 06:34:05;;;;;;;6.65;6.05;;;17.20;91.70;;;;;;6337779;22;20003;-79
2022/05/06 06:36:31;;;;;;;6.43;5.82;;;17.20;91.70;;;;;;6337382;22;20390;-79
2022/05/06 06:38:57;;;;;;;6.18;5.55;;;17.30;91.60;;;;;;6311631;22;20085;-79
2022/05/06 06:41:22;;;;;;;6.80;6.20;;;17.30;91.60;;;;;;6311377;22;20003;-77
2022/05/06 06:43:49;;;;;;;6.82;6.13;;;17.30;91.60;;;;;;6338840;22;19995;-77
2022/05/06 06:46:16;;;;;;;6.13;5.63;;;17.40;91.50;;;;;;6339027;22;19995;-77
2022/05/06 06:48:42;;;;;;;6.20;5.70;;;17.20;91.70;;;;;;6310412;22;20305;-77
2022/05/06 06:51:09;;;;;;;11.15;10.15;;;17.30;91.70;;;;;;6338175;22;20003;-74
2022/05/06 06:53:35;;;;;;;6.90;6.22;;;17.30;91.60;;;;;;6310439;22;20082;-73
2022/05/06 06:56:01;;;;;;;7.40;6.70;;;17.30;91.70;;;;;;6310097;22;20013;-73
2022/05/06 06:58:26;;;;;;;7.25;6.55;;;17.30;91.60;;;;;;6337763;22;20003;-73
2022/05/06 07:00:53;;;;;;;8.13;7.32;;;17.30;91.70;;;;;;6337604;22;20046;-73
2022/05/06 07:03:20;;;;;;;7.03;6.32;;;17.30;91.90;;;;;;6338316;22;20060;-74
2022/05/06 07:13:59;;;;;;;6.97;6.28;;;17.30;91.70;;;;;;6337124;22;20059;-89
2022/05/06 07:16:26;;;;;;;6.88;6.15;;;17.30;91.70;;;;;;6338349;22;20081;-74
2022/05/06 07:18:52;;;;;;;7.00;6.40;;;17.30;91.90;;;;;;6338114;22;20077;-73
2022/05/06 07:21:18;;;;;;;7.57;6.85;;;17.30;92.00;;;;;;6337352;22;20071;-74
2022/05/06 07:23:43;;;;;;;8.70;7.90;;;17.40;91.90;;;;;;6308779;22;20006;-75
2022/05/06 07:26:12;;;;;;;8.38;7.40;;;17.40;91.90;;;;;;6309464;22;19999;-74
2022/05/06 07:28:38;;;;;;;7.72;7.00;;;17.40;91.70;;;;;;6337238;22;20418;-76
2022/05/06 07:31:04;;;;;;;7.90;6.93;;;17.40;91.70;;;;;;6336062;22;19999;-77
2022/05/06 07:33:30;;;;;;;7.78;7.07;;;17.40;91.70;;;;;;6338786;22;20006;-77
2022/05/06 07:35:56;;;;;;;8.73;7.40;;;17.40;91.70;;;;;;6336434;22;20082;-75
2022/05/06 07:38:22;;;;;;;8.07;7.28;;;17.40;91.80;;;;;;6333612;22;20045;-75
2022/05/06 07:40:48;;;;;;;7.82;7.13;;;17.40;91.80;;;;;;6335840;22;20353;-76
2022/05/06 07:43:14;;;;;;;7.38;6.55;;;17.40;92.00;;;;;;6336248;22;19999;-77
2022/05/06 07:45:40;;;;;;;8.02;7.25;;;17.40;92.00;;;;;;6335521;22;20329;-76
2022/05/06 07:48:08;;;;;;;7.68;6.90;;;17.50;92.00;;;;;;6309702;22;19999;-77
2022/05/06 07:50:34;;;;;;;7.95;7.25;;;17.50;91.80;;;;;;6337156;22;20030;-76
2022/05/06 07:53:00;;;;;;;8.45;7.68;;;17.50;91.80;;;;;;6338793;22;19995;-77
2022/05/06 07:55:26;;;;;;;8.57;7.72;;;17.50;91.70;;;;;;6338293;22;20070;-80
2022/05/06 07:57:53;;;;;;;8.30;7.55;;;17.50;91.90;;;;;;6338501;22;20005;-78
2022/05/06 08:00:23;;;;;;;8.27;7.57;;;17.50;91.90;;;;;;6338784;22;20069;-79
2022/05/06 08:05:33;;;;;;;12.23;11.02;;;17.50;91.80;;;;;;6334979;22;20038;-78
2022/05/06 08:07:58;;;;;;;7.40;6.80;;;17.50;91.90;;;;;;6304950;22;20002;-78
2022/05/06 08:10:24;;;;;;;7.72;7.03;;;17.50;92.10;;;;;;6336350;22;20340;-78
2022/05/06 08:12:50;;;;;;;7.43;6.72;;;17.50;92.10;;;;;;6337689;22;20025;-78
2022/05/06 08:15:16;;;;;;;7.57;6.88;;;17.60;92.00;;;;;;6338496;22;20089;-76
2022/05/06 08:17:42;;;;;;;7.35;6.68;;;17.60;92.10;;;;;;6310124;22;20424;-76
2022/05/06 08:20:09;;;;;;;7.78;7.07;;;17.70;91.90;;;;;;6335599;22;20009;-76
2022/05/06 08:22:36;;;;;;;8.90;7.07;;;17.70;91.90;;;;;;6310831;22;20005;-76
2022/05/06 08:25:03;;;;;;;8.95;7.40;;;17.80;92.10;;;;;;6338575;22;20070;-76
2022/05/06 08:27:28;;;;;;;7.63;6.93;;;17.70;91.60;;;;;;6312074;22;19999;-73
2022/05/06 08:29:55;;;;;;;7.63;6.85;;;17.70;91.80;;;;;;6336462;22;20042;-73
2022/05/06 08:32:20;;;;;;;7.30;6.60;;;17.80;91.70;;;;;;6338435;22;20068;-73
2022/05/06 08:34:47;;;;;;;7.60;6.80;;;17.90;91.60;;;;;;6339105;22;20465;-73
2022/05/06 08:37:13;;;;;;;6.60;6.00;;;17.90;91.60;;;;;;6325125;22;20010;-74
2022/05/06 08:39:38;;;;;;;7.22;6.63;;;17.90;91.80;;;;;;6332108;22;20025;-76
2022/05/06 08:42:08;;;;;;;11.70;10.60;;;18.00;91.70;;;;;;6336207;22;20067;-76
2022/05/06 08:52:50;;;;;;;6.85;6.25;;;17.90;91.80;;;;;;6339676;22;20090;-76
2022/05/06 08:55:18;;;;;;;6.60;6.00;;;18.00;91.80;;;;;;6311247;22;20029;-75
2022/05/06 08:57:45;;;;;;;9.40;8.38;;;18.00;91.70;;;;;;6338663;22;20003;-74
2022/05/06 09:00:12;;;;;;;7.28;6.50;;;18.00;91.60;;;;;;6337838;22;20085;-74
2022/05/06 09:02:39;;;;;;;6.50;5.82;;;17.90;91.80;;;;;;6334484;22;20142;-73
2022/05/06 09:05:20;;;;;;;11.88;10.75;;;18.00;91.80;;;;;;6338845;22;20013;-74
2022/05/06 09:07:55;;;;;;;7.40;6.80;;;17.90;91.40;;;;;;6336770;22;20001;-74
2022/05/06 09:10:21;;;;;;;6.57;5.97;;;17.80;91.90;;;;;;6309952;22;20333;-73
2022/05/06 09:12:51;;;;;;;6.05;5.47;;;17.80;92.00;;;;;;6337845;22;20329;-72
2022/05/06 09:18:03;;;;;;;7.60;6.90;;;17.90;91.90;;;;;;6337932;22;20068;-73
2022/05/06 09:20:29;;;;;;;6.88;6.28;;;17.90;91.80;;;;;;6336466;22;20078;-74
2022/05/06 09:22:56;;;;;;;7.25;6.55;;;17.90;91.80;;;;;;6311441;22;20034;-74
2022/05/06 09:25:42;;;;;;;8.55;7.75;;;17.90;92.00;;;;;;6309129;22;19999;-75
2022/05/06 09:28:29;;;;;;;6.97;6.30;;;17.90;92.20;;;;;;6338918;22;20048;-75
2022/05/06 09:31:08;;;;;;;6.47;5.88;;;17.90;92.10;;;;;;6337556;22;20384;-75
2022/05/06 09:33:41;;;;;;;9.88;8.98;;;17.90;92.10;;;;;;6338769;22;20021;-75
2022/05/06 09:36:24;;;;;;;8.48;7.55;;;17.90;92.20;;;;;;6339536;22;19999;-75
2022/05/06 09:39:03;;;;;;;7.05;6.43;;;17.90;92.50;;;;;;6338644;22;20037;-75
2022/05/06 09:41:29;;;;;;;17.95;12.52;;;17.90;92.30;;;;;;6338255;22;19999;-75
2022/05/06 09:44:02;;;;;;;10.90;8.95;;;17.90;92.40;;;;;;6337337;22;20085;-75
2022/05/06 09:46:28;;;;;;;9.55;8.65;;;17.80;92.50;;;;;;6339030;22;19995;-75
2022/05/06 09:48:58;;;;;;;8.77;7.97;;;17.80;92.60;;;;;;6336223;22;20533;-83
2022/05/06 09:51:26;;;;;;;7.90;7.20;;;17.90;92.70;;;;;;6338563;22;20002;-81
2022/05/06 09:53:53;;;;;;;8.23;7.47;;;17.90;92.50;;;;;;6336739;22;20012;-81
2022/05/06 09:56:20;;;;;;;8.38;7.60;;;17.90;92.40;;;;;;6310789;22;20030;-82
2022/05/06 09:58:46;;;;;;;8.98;7.28;;;18.00;92.50;;;;;;6339377;22;20442;-83
2022/05/06 10:01:14;;;;;;;7.50;6.80;;;17.90;92.40;;;;;;6338770;22;20003;-82
2022/05/06 10:03:40;;;;;;;10.02;9.13;;;17.90;92.40;;;;;;6340304;22;20083;-83
2022/05/06 10:06:09;;;;;;;9.98;9.07;;;17.90;92.50;;;;;;6335032;22;19999;-83
2022/05/06 10:08:41;;;;;;;7.88;7.18;;;18.00;92.50;;;;;;6333801;22;20447;-82
2022/05/06 10:11:12;;;;;;;11.05;9.95;;;18.00;92.40;;;;;;6335153;22;19998;-82
2022/05/06 10:13:45;;;;;;;6.90;6.20;;;18.00;92.30;;;;;;6335335;22;20007;-82
2022/05/06 10:16:11;;;;;;;7.03;6.35;;;18.00;92.40;;;;;;6335480;22;20002;-82
2022/05/06 10:18:39;;;;;;;11.05;9.98;;;18.00;92.30;;;;;;6338909;22;19998;-82
2022/05/06 10:21:06;;;;;;;6.82;6.22;;;18.00;91.90;;;;;;6337885;22;20003;-81
2022/05/06 10:23:42;;;;;;;6.63;6.05;;;18.00;92.10;;;;;;6335341;22;20010;-81
2022/05/06 10:26:08;;;;;;;11.80;10.40;;;18.20;92.20;;;;;;6338077;22;20514;-81
2022/05/06 10:34:13;;;;;;;6.20;5.63;;;18.30;92.10;;;;;;6335292;22;20099;-81
2022/05/06 10:36:42;;;;;;;6.70;6.00;;;18.20;92.10;;;;;;6337406;22;20002;-81
2022/05/06 10:39:26;;;;;;;5.40;4.90;;;18.30;92.00;;;;;;6337630;22;20028;-81
2022/05/06 10:42:06;;;;;;;7.00;6.40;;;18.40;92.00;;;;;;6338837;22;20051;-81
2022/05/06 10:44:43;;;;;;;5.78;5.28;;;18.20;91.50;;;;;;6338298;22;20128;-81
2022/05/06 10:47:11;;;;;;;7.55;5.65;;;18.30;91.70;;;;;;6338335;22;20006;-81
2022/05/06 10:49:40;;;;;;;7.28;6.57;;;18.40;91.80;;;;;;6338774;22;20094;-81
2022/05/06 10:52:18;;;;;;;6.05;5.45;;;18.40;91.80;;;;;;6370111;22;20037;-80
2022/05/06 10:54:47;;;;;;;7.85;7.10;;;18.50;91.80;;;;;;6341603;22;20420;-80
2022/05/06 10:57:13;;;;;;;8.00;6.90;;;18.60;91.60;;;;;;6369780;22;20289;-81
2022/05/06 11:00:01;;;;;;;6.60;5.88;;;18.70;91.60;;;;;;6369961;22;20002;-81
2022/05/06 11:02:29;;;;;;;6.50;5.90;;;18.70;91.40;;;;;;6370331;22;20004;-81
2022/05/06 11:04:58;;;;;;;6.35;5.75;;;18.70;91.00;;;;;;6370348;22;20002;-81
2022/05/06 11:07:25;;;;;;;6.20;5.68;;;18.70;91.10;;;;;;6342129;22;20008;-80
2022/05/06 11:09:53;;;;;;;11.35;10.35;;;18.80;91.10;;;;;;6370036;22;20378;-81
2022/05/06 11:12:33;;;;;;;8.05;6.80;;;18.70;91.20;;;;;;6370355;22;20408;-81
2022/05/06 11:15:01;;;;;;;7.28;6.57;;;18.80;91.30;;;;;;6369959;22;20077;-80
2022/05/06 11:17:27;;;;;;;8.13;7.38;;;18.80;91.30;;;;;;6369392;22;20009;-82
2022/05/06 11:19:53;;;;;;;7.47;6.60;;;18.80;91.20;;;;;;6368416;22;20006;-82
2022/05/06 11:22:20;;;;;;;9.60;8.70;;;18.80;91.10;;;;;;6366982;22;19995;-81
2022/05/06 11:24:46;;;;;;;7.10;6.50;;;18.70;91.10;;;;;;6365865;22;19998;-82
2022/05/06 11:27:20;;;;;;;7.00;6.30;;;18.60;91.10;;;;;;6366737;22;19998;-82
2022/05/06 11:29:55;;;;;;;9.68;7.40;;;18.70;91.10;;;;;;6366501;22;20048;-82
2022/05/06 11:32:22;;;;;;;8.10;7.28;;;18.60;91.10;;;;;;6367267;22;20017;-82
2022/05/06 11:35:10;;;;;;;7.05;6.40;;;18.60;91.20;;;;;;6337923;22;20014;-82
2022/05/06 11:37:40;;;;;;;7.55;6.85;;;18.60;91.20;;;;;;6366681;22;20007;-82
2022/05/06 11:40:32;;;;;;;12.25;10.95;;;18.60;91.20;;;;;;6367946;22;20046;-82
2022/05/06 11:42:59;;;;;;;8.73;6.60;;;18.60;91.30;;;;;;6369065;22;20460;-82
2022/05/06 11:48:11;;;;;;;6.07;5.47;;;18.50;91.10;;;;;;6368619;22;20037;-83
2022/05/06 11:50:38;;;;;;;7.07;5.75;;;18.50;91.20;;;;;;6364545;22;20044;-82
2022/05/06 11:53:13;;;;;;;5.43;4.93;;;18.60;91.20;;;;;;6365856;22;20004;-81
2022/05/06 11:55:41;;;;;;;6.15;5.55;;;18.60;91.10;;;;;;6366258;22;20025;-81
2022/05/06 11:58:10;;;;;;;6.38;5.80;;;18.70;91.00;;;;;;6338505;22;20462;-82
2022/05/06 12:00:36;;;;;;;6.32;5.75;;;18.70;91.60;;;;;;6365702;22;20002;-82
2022/05/06 12:03:04;;;;;;;6.47;5.88;;;18.70;91.40;;;;;;6366125;22;20770;-82
2022/05/06 12:05:31;;;;;;;8.05;7.30;;;18.70;90.90;;;;;;6366030;22;20028;-82
2022/05/06 12:07:56;;;;;;;6.13;5.40;;;18.60;91.00;;;;;;6366487;22;20037;-81
2022/05/06 12:10:33;;;;;;;10.43;9.43;;;18.70;91.00;;;;;;6365954;22;20002;-82
2022/05/06 12:13:07;;;;;;;7.75;6.30;;;18.60;90.70;;;;;;6365636;22;20034;-82
2022/05/06 12:15:37;;;;;;;9.07;8.00;;;18.50;91.10;;;;;;6366035;22;20464;-82
2022/05/06 12:18:06;;;;;;;;;;;18.30;91.10;;;;;;6337854;22;20035;-82
2022/05/06 12:20:33;;;;;;;5.70;5.18;;;18.30;90.80;;;;;;6366141;22;20390;-83
2022/05/06 12:22:59;;;;;;;6.05;5.03;;;18.30;91.00;;;;;;6366483;22;20005;-83
2022/05/06 12:25:26;;;;;;;4.97;4.47;;;18.50;91.10;;;;;;6363889;22;20075;-83
2022/05/06 12:28:13;;;;;;;4.55;4.07;;;18.50;91.30;;;;;;6339769;22;20007;-84
2022/05/06 12:30:39;;;;;;;6.60;5.05;;;18.60;91.00;;;;;;6368199;22;20018;-82
2022/05/06 12:33:06;;;;;;;5.65;3.95;;;18.50;90.30;;;;;;6369168;22;19995;-83
2022/05/06 12:35:32;;;;;;;9.23;5.85;;;18.50;90.50;;;;;;6341410;22;20013;-84
2022/05/06 12:38:00;;;;;;;7.65;4.82;;;18.50;90.40;;;;;;6343359;22;20003;-85
2022/05/06 12:40:33;;;;;;;3.83;3.53;;;18.40;90.70;;;;;;6371012;22;20077;-83
2022/05/06 12:43:06;;;;;;;5.00;3.97;;;18.50;90.70;;;;;;6371394;22;20287;-83
2022/05/06 12:45:32;;;;;;;4.63;3.70;;;18.50;90.60;;;;;;6371333;22;19994;-83
2022/05/06 12:50:42;;;;;;;5.00;4.03;;;18.60;90.50;;;;;;6371146;22;20451;-84
2022/05/06 12:53:08;;;;;;;3.95;3.45;;;18.60;90.50;;;;;;6371300;22;19998;-84
2022/05/06 12:55:34;;;;;;;6.63;3.47;;;18.60;90.60;;;;;;6366273;22;19999;-84
2022/05/06 12:57:59;;;;;;;7.13;4.75;;;18.60;90.70;;;;;;6371131;22;20002;-83
2022/05/06 13:00:26;;;;;;;6.57;4.32;;;18.60;90.80;;;;;;6343093;22;20057;-84
2022/05/06 13:02:52;;;;;;;4.13;3.00;;;18.50;90.60;;;;;;6371101;22;20003;-84
2022/05/06 13:05:22;;;;;;;3.58;3.28;;;18.40;90.80;;;;;;6371089;22;19998;-83
2022/05/06 13:07:48;;;;;;;3.30;2.92;;;18.40;90.70;;;;;;6343214;22;20005;-84
2022/05/06 13:10:13;;;;;;;5.25;3.05;;;18.50;90.70;;;;;;6370698;22;20002;-82
2022/05/06 13:12:42;;;;;;;4.05;2.80;;;18.40;90.60;;;;;;6370750;22;20084;-84
2022/05/06 13:15:08;;;;;;;3.65;2.55;;;18.50;90.50;;;;;;6370221;22;20002;-84
2022/05/06 13:17:34;;;;;;;4.45;3.15;;;18.50;90.40;;;;;;6342452;22;20006;-81
2022/05/06 13:20:00;;;;;;;3.63;2.80;;;18.40;90.40;;;;;;6370312;22;20294;-82
2022/05/06 13:22:26;;;;;;;4.32;2.78;;;18.30;90.70;;;;;;6342785;22;19998;-81
2022/05/06 13:24:51;;;;;;;4.05;2.35;;;18.20;90.70;;;;;;6370954;22;19998;-82
2022/05/06 13:27:17;;;;;;;4.07;2.20;;;18.30;90.70;;;;;;6370862;22;20002;-83
2022/05/06 13:29:43;;;;;;;5.65;2.90;;;18.30;90.50;;;;;;6342801;22;20007;-83
2022/05/06 13:32:09;;;;;;;4.68;2.80;;;18.30;90.50;;;;;;6342824;22;20439;-83
2022/05/06 13:34:34;;;;;;;2.88;2.30;;;18.20;90.50;;;;;;6370344;22;20077;-83
2022/05/06 13:37:01;;;;;;;4.60;2.97;;;18.30;90.60;;;;;;6369228;22;20067;-83